MKJPMTPP

Guest
Details From MKJP - Norman Manley Intl
To MTPP - Toussaint Louverture Intl
Flight Number -
Tags Generated
Created
Modified
Stats Distance 259 nm / 480 km
Max Altitude 0 ft / 0 m
Waypoints 3
Social Downloads 7
Likes 0
Share VATSIM

Download

Looking for another format? Having issues loading an existing format? Contact us
Advertisement - Login to hide

Notes

Generated

Route

MKJP R1523 MTPP

ID Type Via Altitude Latitude Longitude Leg Dist Tot Dist Heading (true) Name
O MKJP APT - 0 ft / 0 m 17.94026˚ -76.79945˚ - 0 nm - -
R1523 FIX - 0 ft / 0 m 18.57933˚ -72.30692˚ 259 nm 259 nm 81° / 82° -
O MTPP APT - 0 ft / 0 m 18.57933˚ -72.30692˚ 0 nm 259 nm 0° / 180° -

Altitude Profile

Advertisement - Login to hide

Weather


0- 5 10 15 20 25 30 35+ Temperature / ° C

Clouds and Precipitation
Forecast for 2017-12-16 18:00 UTC. Updated 2 minutes ago

Ground ~20,000 ft ~40,000 ft Winds

MKJP

Details ICAO MKJP (KIN)
Name Norman Manley Intl
Region Jamaica
Timezone Unknown (UTC+0.0)
Stats Elevation 10 ft / 3 m (AMSL)
Location 17.935665° -76.787560°
Runways 1
Magnetic Variation 7.542° W

METAR

MKJP 161700Z 21006KT 9999 FEW022 30/23 Q1016

Decode

TAF

Not found

Departure Runways

ID Width Length Bearing (true) Bearing (mag) Surface Threshold Offset Overrun Length
12 150 ft / 46 m 8,912 ft / 2,717 m 112.09° 119.63° Asphalt 0 ft / 0 m 0 ft / 0 m
30 150 ft / 46 m 8,912 ft / 2,717 m 292.10° 299.64° Asphalt 0 ft / 0 m 0 ft / 0 m

MTPP

Details ICAO MTPP (PAP)
Name TOUSSAINT LOUVERTURE INTL
Region Haiti
Timezone America/Port-au-Prince (UTC-5.0)
Stats Elevation 122 ft / 37 m (AMSL)
Location 18.580051° -72.292540°
Runways 1
Magnetic Variation 10.193° W

METAR

MTPP 161700Z 09010KT 9999 FEW027 SCT230 32/18 Q1016 A3000

Decode

TAF

TAF MTPP 161100Z 1612/1712 07010KT 8000 FEW024 FM161900 14006KT 9000 FEW028 BECMG 1708/1712 09012KT

Decode

Destination Runways

ID Width Length Bearing (true) Bearing (mag) Surface Threshold Offset Overrun Length
10 141 ft / 43 m 9,963 ft / 3,037 m 86.96° 97.15° Asphalt 0 ft / 0 m 0 ft / 0 m
28 141 ft / 43 m 9,963 ft / 3,037 m 266.97° 277.16° Asphalt 0 ft / 0 m 0 ft / 0 m

Approach Navaids

Runway Type Ident Frequency Range Bearing (true) Bearing (mag) Slope Elevation
10 Localiser IMG 111.50 MHz 18 nm / 33 km 87.00° 97.19° - 121 ft / 37 m (AMSL)
10 Glidescope IMG 111.50 MHz 10 nm / 19 km 73.67° 83.86° 3.00° 122 ft / 37 m (AMSL)
10 DME IMG 111.50 MHz 18 nm / 33 km - - - 121 ft / 37 m (AMSL)

Popular Alternatives